Airfield :
LOGIN :

Register | Disclaimer

   EN    FR    IT 

 










Legend :    VFR   Marginal VFR   IFR   Intensive IFR   Very Intensive IFR
Visi :
Ceiling :
>= 8 km
>= 3000ft
5 to 8 km
1000 to 3000 ft
1500m to 5 km
500 to 1000 ft
800 to 1500m
200 to 500 ft
< 800m
< 200 ft
Symbols :   Thunderstorms  Fog  Heavy snow  Heavy precipitations  Wind > 20 kt
SIGMETs :     Misc.  Thunderstorms  Icing  Turbulence  Mountain Waves  Volcanic Ashes







- Airport Elevation : 3 ft
- IATA code : DHR


EHKD - Den Helder De Kooy

CURRENT METAR :
  • 180713Z AUTO 25028G39KT 210V270 5000 +DZ FEW012 FEW015CB SCT032 BKN038 08/06 Q0979 WHT 25027G40KT 9999 SCT015 BKN025 TEMPO 27030G45KT 3000 SHRAGS FEW010 SCT015CB

EXPIRED METARs :
  • 180655Z AUTO 25027KT 210V270 9999 FEW015CB BKN073 08/05 Q0980 RERA BLU 25027G40KT 9999 SCT015 BKN025 TEMPO 27030G45KT 3000 SHRAGS FEW010 SCT015CB
  • 180640Z AUTO 25022G32KT 9999 FEW015CB SCT069 08/06 Q0980 BLU 25027G40KT 9999 SCT015 BKN025 TEMPO 27030G45KT 3000 SHRAGS FEW010 SCT015CB
  • 180629Z AUTO 25026G43KT 230V290 9000 -RA FEW002 SCT015CB BKN016 BKN022 08/06 Q0980 WHT 25027G40KT 9999 SCT015 BKN025 TEMPO 27030G45KT 3000 SHRAGS FEW010 SCT015CB
  • 180627Z AUTO 26029G43KT 230V310 5000 +SHRA FEW002 SCT015CB BKN020 07/06 Q0981 WHT 24027G40KT 9999 SCT015 BKN025 TEMPO 26030G45KT 3000 SHRAGS FEW010 SCT015CB
  • 180625Z AUTO 27029G43KT 240V310 2700 R21/P3000D +SHRA FEW009 SCT014 SCT015CB BKN018 06/05 Q0981 REUP YLO 24027G40KT 9999 SCT015 BKN025 TEMPO 26030G45KT 3000 SHRAGS FEW010 SCT015CB
  • 180612Z AUTO 26024G36KT 230V290 4500 SHRA SCT011 BKN015CB BKN019 08/07 Q0981 GRN 24027G40KT 9999 SCT015 BKN025 TEMPO 26030G45KT 3000 SHRAGS FEW010 SCT015CB
  • 180603Z AUTO 24028G39KT 210V280 3200 R21/P3000N RA FEW015CB SCT022 BKN025 08/06 Q0981 YLO 24027G40KT 9999 SCT015 BKN025 TEMPO 26030G45KT 3000 SHRAGS FEW010 SCT015CB
  • 180555Z AUTO 24028G39KT 9000 BR FEW014 FEW015CB BKN024 BKN028 09/07 Q0981 WHT 24027G40KT 9999 SCT015 BKN025
  • 180546Z AUTO 23027G40KT 190V260 9000 -UP FEW012 BKN015CB BKN026 08/07 Q0981 WHT 24027G40KT 9999 SCT015 BKN025
  • 180538Z AUTO 21028KT 180V240 9999 FEW006 SCT009 BKN012 SCT015CB 08/07 Q0981 GRN 21020G30KT 4000 -RADZ FEW005 SCT006 SCT007 TEMPO 22025G35KT 2000 -RASN FEW 002 SCT003 SCT004
  • 180534Z AUTO 21028KT 170V230 9999 -RA FEW005 SCT007 BKN008 BKN015CB 07/06 Q0981 GRN 20020G30KT 4000 -RADZ FEW005 SCT006 SCT007 TEMPO 22025G35KT 2000 -RASN FEW 002 SCT003 SCT004
  • 180525Z AUTO 20022G33KT 2200 R21/1800D -UP SCT005 BKN006 BKN015CB 06/05 Q0982 YLO 20020G30KT 4000 -RADZ FEW005 BKN006
  • 180515Z AUTO 19018KT 160V220 2600 R21/P3000U -SHRA BKN006 BKN007 BKN009 BKN015CB 05/04 Q0982 YLO
  • 180455Z AUTO 18023KT 3500 R21/P3000U SHRA FEW005 BKN007 BKN008 FEW015CB 03/03 Q0984 YLO
  • 180425Z AUTO 18020G31KT 140V200 4000 -RA SCT006 BKN007 BKN009 FEW015CB 03/02 Q0986 YLO

TAF TAF EHKD
Valid from the 18 at 06:00 until the 18 at 18:00 UTC


180538Z 1806/1818 23025G40KT 9999 SCT020 BKN030
BECMG 1806/1808 25035G50KT
TEMPO 1808/1818 4000 SHRAGS FEW010 SCT015CB
TEMPO 1808/1812 32040G65KT 3000 -DZRA SCT004 BKN006
PROB30
TEMPO 1809/1812 28045G70KT
BECMG 1812/1814 30020G35KT
BECMG 1815/1818 30015G25KT
No reported NOTAMs for that airfield.
2 SIGMETs reported for the Amsterdam FIR (EHAA) :
 
Severe icing
EHAA SIGMET 2 VALID 180650/180900 EHDB
EHAA AMSTERDAM FIR SEV ICE OBS NE OF LINE N5226 E00244 - N5155 E00644 FL090 MOV ENE 35KT WKN=
Severe turbulence
EHAA SIGMET 1 VALID 180330/180730 EHDB
EHAA AMSTERDAM FIR SEV TURB FCST S OF LINE N5338 E00346 - N5343 E00629 SFC/FL060 STNR NC=



MET'MAP, your aeronautical weather chart ! - Copyright ORBIFLY December 2007 - Disclaimer

ORBIFLY MET'MAP TEAM :

Programming & Development : Alexandra Zaïnal
Concept & Development : Baudouin d'Aumeries
Co-Development & Prog : Marc-Olivier Méhu
Technical & hardware support : Manuel Goepfert

Contact : metmap@orbifly.com




SOURCES & CREDITS :

   NOAA